sensor_id;sensor_type;location;lat;lon;timestamp;temperature;humidity
39067;DHT22;24821;51.988;6.020;2022-12-18T00:01:43;-2.80;99.90
39067;DHT22;24821;51.988;6.020;2022-12-18T00:04:20;-2.90;99.90
39067;DHT22;24821;51.988;6.020;2022-12-18T00:06:45;-2.90;99.90
39067;DHT22;24821;51.988;6.020;2022-12-18T00:09:11;-3.00;99.90
39067;DHT22;24821;51.988;6.020;2022-12-18T00:11:36;-2.90;99.90
39067;DHT22;24821;51.988;6.020;2022-12-18T00:14:02;-3.00;99.90
39067;DHT22;24821;51.988;6.020;2022-12-18T00:16:29;-3.00;99.90
39067;DHT22;24821;51.988;6.020;2022-12-18T00:18:59;-3.00;99.90
39067;DHT22;24821;51.988;6.020;2022-12-18T00:21:26;-3.00;99.90
39067;DHT22;24821;51.988;6.020;2022-12-18T00:23:52;-3.10;99.90
39067;DHT22;24821;51.988;6.020;2022-12-18T00:26:20;-3.10;99.90
39067;DHT22;24821;51.988;6.020;2022-12-18T00:28:46;-3.10;99.90
39067;DHT22;24821;51.988;6.020;2022-12-18T00:31:17;-3.10;99.90
39067;DHT22;24821;51.988;6.020;2022-12-18T00:33:43;-3.10;99.90
39067;DHT22;24821;51.988;6.020;2022-12-18T00:36:51;-3.20;99.90
39067;DHT22;24821;51.988;6.020;2022-12-18T00:39:00;-3.20;99.90
39067;DHT22;24821;51.988;6.020;2022-12-18T00:41:26;-3.20;99.90
39067;DHT22;24821;51.988;6.020;2022-12-18T00:44:12;-3.20;99.90
39067;DHT22;24821;51.988;6.020;2022-12-18T00:46:38;-3.20;99.90
39067;DHT22;24821;51.988;6.020;2022-12-18T00:49:04;-3.30;99.90
39067;DHT22;24821;51.988;6.020;2022-12-18T00:51:29;-3.20;99.90
39067;DHT22;24821;51.988;6.020;2022-12-18T00:53:55;-3.30;99.90
39067;DHT22;24821;51.988;6.020;2022-12-18T00:56:24;-3.40;99.90
39067;DHT22;24821;51.988;6.020;2022-12-18T00:58:49;-3.40;99.90
39067;DHT22;24821;51.988;6.020;2022-12-18T01:01:15;-3.30;99.90
39067;DHT22;24821;51.988;6.020;2022-12-18T01:03:41;-3.40;99.90
39067;DHT22;24821;51.988;6.020;2022-12-18T01:06:08;-3.40;99.90
39067;DHT22;24821;51.988;6.020;2022-12-18T01:08:34;-3.40;99.90
39067;DHT22;24821;51.988;6.020;2022-12-18T01:11:06;-3.40;99.90
39067;DHT22;24821;51.988;6.020;2022-12-18T01:13:31;-3.40;99.90
39067;DHT22;24821;51.988;6.020;2022-12-18T01:15:57;-3.30;99.90
39067;DHT22;24821;51.988;6.020;2022-12-18T01:18:23;-3.40;99.90
39067;DHT22;24821;51.988;6.020;2022-12-18T01:20:48;-3.40;99.90
39067;DHT22;24821;51.988;6.020;2022-12-18T01:23:14;-3.40;99.90
39067;DHT22;24821;51.988;6.020;2022-12-18T01:25:39;-3.40;99.90
39067;DHT22;24821;51.988;6.020;2022-12-18T01:28:05;-3.40;99.90
39067;DHT22;24821;51.988;6.020;2022-12-18T01:30:30;-3.40;99.90
39067;DHT22;24821;51.988;6.020;2022-12-18T01:32:56;-3.40;99.90
39067;DHT22;24821;51.988;6.020;2022-12-18T01:35:21;-3.40;99.90
39067;DHT22;24821;51.988;6.020;2022-12-18T01:37:47;-3.30;99.90
39067;DHT22;24821;51.988;6.020;2022-12-18T01:40:12;-3.40;99.90
39067;DHT22;24821;51.988;6.020;2022-12-18T01:42:38;-3.40;99.90
39067;DHT22;24821;51.988;6.020;2022-12-18T01:48:02;-3.40;99.90
39067;DHT22;24821;51.988;6.020;2022-12-18T01:50:41;-3.40;99.90
39067;DHT22;24821;51.988;6.020;2022-12-18T01:53:12;-3.40;99.90
39067;DHT22;24821;51.988;6.020;2022-12-18T01:55:51;-3.50;99.90
39067;DHT22;24821;51.988;6.020;2022-12-18T01:58:20;-3.50;99.90
39067;DHT22;24821;51.988;6.020;2022-12-18T02:00:47;-3.50;99.90
39067;DHT22;24821;51.988;6.020;2022-12-18T02:03:13;-3.50;99.90
39067;DHT22;24821;51.988;6.020;2022-12-18T02:05:57;-3.50;99.90
39067;DHT22;24821;51.988;6.020;2022-12-18T02:16:52;-3.60;99.90
39067;DHT22;24821;51.988;6.020;2022-12-18T02:25:07;-3.60;99.90
39067;DHT22;24821;51.988;6.020;2022-12-18T02:27:39;-3.60;99.90
39067;DHT22;24821;51.988;6.020;2022-12-18T02:30:06;-3.70;99.90
39067;DHT22;24821;51.988;6.020;2022-12-18T02:32:39;-3.70;99.90
39067;DHT22;24821;51.988;6.020;2022-12-18T02:35:08;-3.70;99.90
39067;DHT22;24821;51.988;6.020;2022-12-18T02:37:35;-3.70;99.90
39067;DHT22;24821;51.988;6.020;2022-12-18T02:40:03;-3.80;99.90
39067;DHT22;24821;51.988;6.020;2022-12-18T02:42:28;-3.80;99.90
39067;DHT22;24821;51.988;6.020;2022-12-18T02:44:54;-3.80;99.90
39067;DHT22;24821;51.988;6.020;2022-12-18T02:47:23;-3.80;99.90
39067;DHT22;24821;51.988;6.020;2022-12-18T02:58:09;-3.80;99.90
39067;DHT22;24821;51.988;6.020;2022-12-18T03:00:43;-3.80;99.90
39067;DHT22;24821;51.988;6.020;2022-12-18T03:03:12;-3.90;99.90
39067;DHT22;24821;51.988;6.020;2022-12-18T03:08:22;-4.00;99.90
39067;DHT22;24821;51.988;6.020;2022-12-18T03:11:10;-3.90;99.90
39067;DHT22;24821;51.988;6.020;2022-12-18T03:13:40;-4.00;99.90
39067;DHT22;24821;51.988;6.020;2022-12-18T03:16:11;-4.00;99.90
39067;DHT22;24821;51.988;6.020;2022-12-18T03:18:46;-4.00;99.90
39067;DHT22;24821;51.988;6.020;2022-12-18T03:21:13;-4.00;99.90
39067;DHT22;24821;51.988;6.020;2022-12-18T03:23:44;-4.00;99.90
39067;DHT22;24821;51.988;6.020;2022-12-18T03:26:16;-4.00;99.90
39067;DHT22;24821;51.988;6.020;2022-12-18T03:28:46;-4.00;99.90
39067;DHT22;24821;51.988;6.020;2022-12-18T03:31:14;-4.00;99.90
39067;DHT22;24821;51.988;6.020;2022-12-18T03:34:01;-4.00;99.90
39067;DHT22;24821;51.988;6.020;2022-12-18T03:36:26;-4.00;99.90
39067;DHT22;24821;51.988;6.020;2022-12-18T03:38:52;-4.00;99.90
39067;DHT22;24821;51.988;6.020;2022-12-18T03:41:19;-4.00;99.90
39067;DHT22;24821;51.988;6.020;2022-12-18T03:44:11;-4.00;99.90
39067;DHT22;24821;51.988;6.020;2022-12-18T03:46:47;-4.00;99.90
39067;DHT22;24821;51.988;6.020;2022-12-18T03:49:25;-4.00;99.90
39067;DHT22;24821;51.988;6.020;2022-12-18T03:54:27;-4.00;99.90
39067;DHT22;24821;51.988;6.020;2022-12-18T03:57:05;-4.00;99.90
39067;DHT22;24821;51.988;6.020;2022-12-18T03:59:33;-4.00;99.90
39067;DHT22;24821;51.988;6.020;2022-12-18T04:02:01;-4.00;99.90
39067;DHT22;24821;51.988;6.020;2022-12-18T04:04:27;-4.00;99.90
39067;DHT22;24821;51.988;6.020;2022-12-18T04:06:54;-4.00;99.90
39067;DHT22;24821;51.988;6.020;2022-12-18T04:09:20;-4.00;99.90
39067;DHT22;24821;51.988;6.020;2022-12-18T04:11:47;-4.00;99.90
39067;DHT22;24821;51.988;6.020;2022-12-18T04:14:13;-4.00;99.90
39067;DHT22;24821;51.988;6.020;2022-12-18T04:16:38;-4.00;99.90
39067;DHT22;24821;51.988;6.020;2022-12-18T04:19:04;-4.00;99.90
39067;DHT22;24821;51.988;6.020;2022-12-18T04:21:30;-4.00;99.90
39067;DHT22;24821;51.988;6.020;2022-12-18T04:23:56;-4.00;99.90
39067;DHT22;24821;51.988;6.020;2022-12-18T04:26:21;-4.00;99.90
39067;DHT22;24821;51.988;6.020;2022-12-18T04:28:47;-4.00;99.90
39067;DHT22;24821;51.988;6.020;2022-12-18T04:31:13;-4.00;99.90
39067;DHT22;24821;51.988;6.020;2022-12-18T04:33:38;-3.90;99.90
39067;DHT22;24821;51.988;6.020;2022-12-18T04:36:04;-3.90;99.90
39067;DHT22;24821;51.988;6.020;2022-12-18T04:38:30;-3.90;99.90
39067;DHT22;24821;51.988;6.020;2022-12-18T04:40:55;-3.90;99.90
39067;DHT22;24821;51.988;6.020;2022-12-18T04:43:21;-3.90;99.90
39067;DHT22;24821;51.988;6.020;2022-12-18T04:45:46;-3.90;99.90
39067;DHT22;24821;51.988;6.020;2022-12-18T04:48:12;-3.90;99.90
39067;DHT22;24821;51.988;6.020;2022-12-18T04:50:37;-3.90;99.90
39067;DHT22;24821;51.988;6.020;2022-12-18T04:53:03;-3.90;99.90
39067;DHT22;24821;51.988;6.020;2022-12-18T04:55:29;-3.90;99.90
39067;DHT22;24821;51.988;6.020;2022-12-18T04:57:55;-3.80;99.90
39067;DHT22;24821;51.988;6.020;2022-12-18T05:00:21;-3.80;99.90
39067;DHT22;24821;51.988;6.020;2022-12-18T05:02:46;-3.80;99.90
39067;DHT22;24821;51.988;6.020;2022-12-18T05:05:12;-3.80;99.90
39067;DHT22;24821;51.988;6.020;2022-12-18T05:07:37;-3.90;99.90
39067;DHT22;24821;51.988;6.020;2022-12-18T05:10:06;-3.90;99.90
39067;DHT22;24821;51.988;6.020;2022-12-18T05:12:32;-3.90;99.90
39067;DHT22;24821;51.988;6.020;2022-12-18T05:14:58;-3.90;99.90
39067;DHT22;24821;51.988;6.020;2022-12-18T05:17:23;-3.90;99.90
39067;DHT22;24821;51.988;6.020;2022-12-18T05:19:49;-3.90;99.90
39067;DHT22;24821;51.988;6.020;2022-12-18T05:22:14;-3.90;99.90
39067;DHT22;24821;51.988;6.020;2022-12-18T05:24:40;-3.90;99.90
39067;DHT22;24821;51.988;6.020;2022-12-18T05:27:06;-4.00;99.90
39067;DHT22;24821;51.988;6.020;2022-12-18T05:29:31;-4.00;99.90
39067;DHT22;24821;51.988;6.020;2022-12-18T05:31:57;-3.90;99.90
39067;DHT22;24821;51.988;6.020;2022-12-18T05:34:22;-4.00;99.90
39067;DHT22;24821;51.988;6.020;2022-12-18T05:36:48;-4.00;99.90
39067;DHT22;24821;51.988;6.020;2022-12-18T05:39:14;-4.00;99.90
39067;DHT22;24821;51.988;6.020;2022-12-18T05:41:39;-4.00;99.90
39067;DHT22;24821;51.988;6.020;2022-12-18T05:44:05;-4.00;99.90
39067;DHT22;24821;51.988;6.020;2022-12-18T05:46:30;-4.00;99.90
39067;DHT22;24821;51.988;6.020;2022-12-18T05:48:59;-4.10;99.90
39067;DHT22;24821;51.988;6.020;2022-12-18T05:51:25;-4.10;99.90
39067;DHT22;24821;51.988;6.020;2022-12-18T05:53:50;-4.10;99.90
39067;DHT22;24821;51.988;6.020;2022-12-18T05:56:20;-4.10;99.90
39067;DHT22;24821;51.988;6.020;2022-12-18T05:58:46;-4.10;99.90
39067;DHT22;24821;51.988;6.020;2022-12-18T06:01:18;-4.10;99.90
39067;DHT22;24821;51.988;6.020;2022-12-18T06:03:44;-4.10;99.90
39067;DHT22;24821;51.988;6.020;2022-12-18T06:06:25;-4.10;99.90
39067;DHT22;24821;51.988;6.020;2022-12-18T06:08:52;-4.10;99.90
39067;DHT22;24821;51.988;6.020;2022-12-18T06:11:20;-4.10;99.90
39067;DHT22;24821;51.988;6.020;2022-12-18T06:13:46;-4.10;99.90
39067;DHT22;24821;51.988;6.020;2022-12-18T06:16:12;-4.10;99.90
39067;DHT22;24821;51.988;6.020;2022-12-18T06:18:38;-4.10;99.90
39067;DHT22;24821;51.988;6.020;2022-12-18T06:21:03;-4.10;99.90
39067;DHT22;24821;51.988;6.020;2022-12-18T06:23:29;-4.10;99.90
39067;DHT22;24821;51.988;6.020;2022-12-18T06:25:55;-4.10;99.90
39067;DHT22;24821;51.988;6.020;2022-12-18T06:28:21;-4.10;99.90
39067;DHT22;24821;51.988;6.020;2022-12-18T06:30:47;-4.10;99.90
39067;DHT22;24821;51.988;6.020;2022-12-18T06:33:14;-4.10;99.90
39067;DHT22;24821;51.988;6.020;2022-12-18T06:35:40;-4.10;99.90
39067;DHT22;24821;51.988;6.020;2022-12-18T06:38:06;-4.00;99.90
39067;DHT22;24821;51.988;6.020;2022-12-18T06:40:32;-4.00;99.90
39067;DHT22;24821;51.988;6.020;2022-12-18T06:42:57;-4.00;99.90
39067;DHT22;24821;51.988;6.020;2022-12-18T06:45:23;-4.00;99.90
39067;DHT22;24821;51.988;6.020;2022-12-18T06:47:49;-3.90;99.90
39067;DHT22;24821;51.988;6.020;2022-12-18T06:50:15;-3.90;99.90
39067;DHT22;24821;51.988;6.020;2022-12-18T06:52:41;-3.90;99.90
39067;DHT22;24821;51.988;6.020;2022-12-18T06:55:08;-3.80;99.90
39067;DHT22;24821;51.988;6.020;2022-12-18T06:57:33;-3.80;99.90
39067;DHT22;24821;51.988;6.020;2022-12-18T06:59:59;-3.80;99.90
39067;DHT22;24821;51.988;6.020;2022-12-18T07:02:25;-3.80;99.90
39067;DHT22;24821;51.988;6.020;2022-12-18T07:04:50;-3.80;99.90
39067;DHT22;24821;51.988;6.020;2022-12-18T07:07:16;-3.80;99.90
39067;DHT22;24821;51.988;6.020;2022-12-18T07:09:41;-3.80;99.90
39067;DHT22;24821;51.988;6.020;2022-12-18T07:12:07;-3.80;99.90
39067;DHT22;24821;51.988;6.020;2022-12-18T07:14:33;-3.70;99.90
39067;DHT22;24821;51.988;6.020;2022-12-18T07:16:59;-3.70;99.90
39067;DHT22;24821;51.988;6.020;2022-12-18T07:19:24;-3.70;99.90
39067;DHT22;24821;51.988;6.020;2022-12-18T07:21:51;-3.70;99.90
39067;DHT22;24821;51.988;6.020;2022-12-18T07:24:16;-3.70;99.90
39067;DHT22;24821;51.988;6.020;2022-12-18T07:26:42;-3.60;99.90
39067;DHT22;24821;51.988;6.020;2022-12-18T07:29:10;-3.60;99.90
39067;DHT22;24821;51.988;6.020;2022-12-18T07:31:36;-3.60;99.90
39067;DHT22;24821;51.988;6.020;2022-12-18T07:34:01;-3.50;99.90
39067;DHT22;24821;51.988;6.020;2022-12-18T07:36:27;-3.50;99.90
39067;DHT22;24821;51.988;6.020;2022-12-18T07:38:52;-3.50;99.90
39067;DHT22;24821;51.988;6.020;2022-12-18T07:41:18;-3.50;99.90
39067;DHT22;24821;51.988;6.020;2022-12-18T07:43:44;-3.40;99.90
39067;DHT22;24821;51.988;6.020;2022-12-18T07:46:11;-3.40;99.90
39067;DHT22;24821;51.988;6.020;2022-12-18T07:48:42;-3.40;99.90
39067;DHT22;24821;51.988;6.020;2022-12-18T07:51:08;-3.40;99.90
39067;DHT22;24821;51.988;6.020;2022-12-18T07:53:34;-3.50;99.90
39067;DHT22;24821;51.988;6.020;2022-12-18T07:56:06;-3.50;99.90
39067;DHT22;24821;51.988;6.020;2022-12-18T07:58:32;-3.50;99.90
39067;DHT22;24821;51.988;6.020;2022-12-18T08:01:05;-3.50;99.90
39067;DHT22;24821;51.988;6.020;2022-12-18T08:03:32;-3.40;99.90
39067;DHT22;24821;51.988;6.020;2022-12-18T08:06:02;-3.40;99.90
39067;DHT22;24821;51.988;6.020;2022-12-18T08:08:28;-3.40;99.90
39067;DHT22;24821;51.988;6.020;2022-12-18T08:10:54;-3.30;99.90
39067;DHT22;24821;51.988;6.020;2022-12-18T08:13:21;-3.30;99.90
39067;DHT22;24821;51.988;6.020;2022-12-18T08:15:48;-3.30;99.90
39067;DHT22;24821;51.988;6.020;2022-12-18T08:18:20;-3.20;99.90
39067;DHT22;24821;51.988;6.020;2022-12-18T08:20:45;-3.20;99.90
39067;DHT22;24821;51.988;6.020;2022-12-18T08:23:11;-3.10;99.90
39067;DHT22;24821;51.988;6.020;2022-12-18T08:25:36;-3.10;99.90
39067;DHT22;24821;51.988;6.020;2022-12-18T08:28:02;-3.10;99.90
39067;DHT22;24821;51.988;6.020;2022-12-18T08:30:27;-3.00;99.90
39067;DHT22;24821;51.988;6.020;2022-12-18T08:32:53;-3.00;99.90
39067;DHT22;24821;51.988;6.020;2022-12-18T08:35:19;-2.90;99.90
39067;DHT22;24821;51.988;6.020;2022-12-18T08:37:44;-2.90;99.90
39067;DHT22;24821;51.988;6.020;2022-12-18T08:40:10;-2.80;99.90
39067;DHT22;24821;51.988;6.020;2022-12-18T08:42:36;-2.80;99.90
39067;DHT22;24821;51.988;6.020;2022-12-18T08:45:33;-2.70;99.90
39067;DHT22;24821;51.988;6.020;2022-12-18T08:47:59;-2.70;99.90
39067;DHT22;24821;51.988;6.020;2022-12-18T08:50:25;-2.60;99.90
39067;DHT22;24821;51.988;6.020;2022-12-18T08:52:50;-2.50;99.90
39067;DHT22;24821;51.988;6.020;2022-12-18T08:55:17;-2.50;99.90
39067;DHT22;24821;51.988;6.020;2022-12-18T08:57:43;-2.40;99.90
39067;DHT22;24821;51.988;6.020;2022-12-18T09:00:09;-2.40;99.90
39067;DHT22;24821;51.988;6.020;2022-12-18T09:02:34;-2.30;99.90
39067;DHT22;24821;51.988;6.020;2022-12-18T09:05:00;-2.30;99.90
39067;DHT22;24821;51.988;6.020;2022-12-18T09:07:25;-2.20;99.90
39067;DHT22;24821;51.988;6.020;2022-12-18T09:09:51;-2.20;99.90
39067;DHT22;24821;51.988;6.020;2022-12-18T09:12:16;-2.20;99.90
39067;DHT22;24821;51.988;6.020;2022-12-18T09:14:42;-2.20;99.90
39067;DHT22;24821;51.988;6.020;2022-12-18T09:17:08;-2.00;99.90
39067;DHT22;24821;51.988;6.020;2022-12-18T09:19:33;-2.00;99.90
39067;DHT22;24821;51.988;6.020;2022-12-18T09:21:59;-1.90;99.90
39067;DHT22;24821;51.988;6.020;2022-12-18T09:24:24;-1.90;99.90
39067;DHT22;24821;51.988;6.020;2022-12-18T09:26:53;-1.80;99.90
39067;DHT22;24821;51.988;6.020;2022-12-18T09:29:19;-1.80;99.90
39067;DHT22;24821;51.988;6.020;2022-12-18T09:31:44;-1.70;99.90
39067;DHT22;24821;51.988;6.020;2022-12-18T09:34:10;-1.60;99.90
39067;DHT22;24821;51.988;6.020;2022-12-18T09:36:35;-1.60;99.90
39067;DHT22;24821;51.988;6.020;2022-12-18T09:39:01;-1.50;99.90
39067;DHT22;24821;51.988;6.020;2022-12-18T09:41:41;-1.40;99.90
39067;DHT22;24821;51.988;6.020;2022-12-18T09:49:33;-1.20;99.90
39067;DHT22;24821;51.988;6.020;2022-12-18T09:52:09;-1.20;99.90
39067;DHT22;24821;51.988;6.020;2022-12-18T09:54:42;-1.10;99.90
39067;DHT22;24821;51.988;6.020;2022-12-18T09:57:18;-1.00;99.90
39067;DHT22;24821;51.988;6.020;2022-12-18T09:59:53;-1.00;99.90
39067;DHT22;24821;51.988;6.020;2022-12-18T10:02:25;-0.90;99.90
39067;DHT22;24821;51.988;6.020;2022-12-18T10:05:04;-0.90;99.90
39067;DHT22;24821;51.988;6.020;2022-12-18T10:08:02;-0.90;99.90
39067;DHT22;24821;51.988;6.020;2022-12-18T10:10:52;-0.80;99.90
39067;DHT22;24821;51.988;6.020;2022-12-18T10:21:05;-0.70;99.90
39067;DHT22;24821;51.988;6.020;2022-12-18T10:26:22;-0.60;99.90
39067;DHT22;24821;51.988;6.020;2022-12-18T10:28:49;-0.60;99.90
39067;DHT22;24821;51.988;6.020;2022-12-18T10:31:18;-0.50;99.90
39067;DHT22;24821;51.988;6.020;2022-12-18T10:33:46;-0.40;99.90
39067;DHT22;24821;51.988;6.020;2022-12-18T10:36:11;-0.40;99.90
39067;DHT22;24821;51.988;6.020;2022-12-18T10:38:37;-0.30;99.90
39067;DHT22;24821;51.988;6.020;2022-12-18T10:41:05;-0.30;99.90
39067;DHT22;24821;51.988;6.020;2022-12-18T10:46:01;-0.10;99.90
39067;DHT22;24821;51.988;6.020;2022-12-18T10:48:27;-0.10;99.90
39067;DHT22;24821;51.988;6.020;2022-12-18T10:50:53;-0.10;99.90
39067;DHT22;24821;51.988;6.020;2022-12-18T10:53:30;0.00;99.90
39067;DHT22;24821;51.988;6.020;2022-12-18T10:55:58;0.00;99.90
39067;DHT22;24821;51.988;6.020;2022-12-18T11:03:37;0.20;99.90
39067;DHT22;24821;51.988;6.020;2022-12-18T11:06:09;0.20;99.90
39067;DHT22;24821;51.988;6.020;2022-12-18T11:08:35;0.20;99.90
39067;DHT22;24821;51.988;6.020;2022-12-18T11:11:02;0.30;99.90
39067;DHT22;24821;51.988;6.020;2022-12-18T11:13:29;0.30;99.90
39067;DHT22;24821;51.988;6.020;2022-12-18T11:15:56;0.40;99.90
39067;DHT22;24821;51.988;6.020;2022-12-18T11:18:29;0.40;99.90
39067;DHT22;24821;51.988;6.020;2022-12-18T11:21:07;0.40;99.90
39067;DHT22;24821;51.988;6.020;2022-12-18T11:23:34;0.50;99.90
39067;DHT22;24821;51.988;6.020;2022-12-18T11:26:04;0.50;99.90
39067;DHT22;24821;51.988;6.020;2022-12-18T11:28:37;0.50;99.90
39067;DHT22;24821;51.988;6.020;2022-12-18T11:31:21;0.60;99.90
39067;DHT22;24821;51.988;6.020;2022-12-18T11:36:22;0.60;99.90
39067;DHT22;24821;51.988;6.020;2022-12-18T11:38:49;0.60;99.90
39067;DHT22;24821;51.988;6.020;2022-12-18T11:44:18;0.70;99.90
39067;DHT22;24821;51.988;6.020;2022-12-18T11:46:55;0.70;99.90
39067;DHT22;24821;51.988;6.020;2022-12-18T11:49:28;0.80;99.90
39067;DHT22;24821;51.988;6.020;2022-12-18T11:51:59;0.80;99.90
39067;DHT22;24821;51.988;6.020;2022-12-18T11:54:25;0.80;99.90
39067;DHT22;24821;51.988;6.020;2022-12-18T11:56:56;0.90;99.90
39067;DHT22;24821;51.988;6.020;2022-12-18T11:59:30;0.90;99.90
39067;DHT22;24821;51.988;6.020;2022-12-18T12:07:44;1.00;99.90
39067;DHT22;24821;51.988;6.020;2022-12-18T12:13:20;1.10;99.90
39067;DHT22;24821;51.988;6.020;2022-12-18T12:16:24;1.10;99.90
39067;DHT22;24821;51.988;6.020;2022-12-18T12:19:02;1.10;99.90
39067;DHT22;24821;51.988;6.020;2022-12-18T12:21:40;1.10;99.90
39067;DHT22;24821;51.988;6.020;2022-12-18T12:27:18;1.20;99.90
39067;DHT22;24821;51.988;6.020;2022-12-18T12:35:40;1.30;99.90
39067;DHT22;24821;51.988;6.020;2022-12-18T12:38:23;1.30;99.90
39067;DHT22;24821;51.988;6.020;2022-12-18T12:41:04;1.30;99.80
39067;DHT22;24821;51.988;6.020;2022-12-18T12:43:48;1.30;99.80
39067;DHT22;24821;51.988;6.020;2022-12-18T12:46:17;1.30;99.80
39067;DHT22;24821;51.988;6.020;2022-12-18T12:48:59;1.30;99.50
39067;DHT22;24821;51.988;6.020;2022-12-18T12:51:28;1.40;99.50
39067;DHT22;24821;51.988;6.020;2022-12-18T12:53:56;1.30;99.50
39067;DHT22;24821;51.988;6.020;2022-12-18T12:56:26;1.30;99.30
39067;DHT22;24821;51.988;6.020;2022-12-18T13:01:58;1.40;99.20
39067;DHT22;24821;51.988;6.020;2022-12-18T13:12:56;1.40;99.00
39067;DHT22;24821;51.988;6.020;2022-12-18T13:15:47;1.40;99.10
39067;DHT22;24821;51.988;6.020;2022-12-18T13:18:19;1.40;98.90
39067;DHT22;24821;51.988;6.020;2022-12-18T13:20:51;1.40;98.90
39067;DHT22;24821;51.988;6.020;2022-12-18T13:23:29;1.40;98.70
39067;DHT22;24821;51.988;6.020;2022-12-18T13:25:58;1.40;98.60
39067;DHT22;24821;51.988;6.020;2022-12-18T13:31:02;1.40;98.70
39067;DHT22;24821;51.988;6.020;2022-12-18T13:33:44;1.40;98.80
39067;DHT22;24821;51.988;6.020;2022-12-18T13:36:26;1.40;98.80
39067;DHT22;24821;51.988;6.020;2022-12-18T13:41:40;1.40;98.80
39067;DHT22;24821;51.988;6.020;2022-12-18T13:46:58;1.40;98.90
39067;DHT22;24821;51.988;6.020;2022-12-18T13:49:39;1.40;99.00
39067;DHT22;24821;51.988;6.020;2022-12-18T13:52:35;1.50;99.10
39067;DHT22;24821;51.988;6.020;2022-12-18T13:55:04;1.50;99.20
39067;DHT22;24821;51.988;6.020;2022-12-18T13:57:36;1.50;99.40
39067;DHT22;24821;51.988;6.020;2022-12-18T14:00:25;1.50;99.50
39067;DHT22;24821;51.988;6.020;2022-12-18T14:02:51;1.50;99.40
39067;DHT22;24821;51.988;6.020;2022-12-18T14:05:36;1.40;99.40
39067;DHT22;24821;51.988;6.020;2022-12-18T14:08:08;1.50;99.40
39067;DHT22;24821;51.988;6.020;2022-12-18T14:10:35;1.40;99.40
39067;DHT22;24821;51.988;6.020;2022-12-18T14:13:07;1.40;99.50
39067;DHT22;24821;51.988;6.020;2022-12-18T14:15:41;1.40;99.40
39067;DHT22;24821;51.988;6.020;2022-12-18T14:21:00;1.40;99.60
39067;DHT22;24821;51.988;6.020;2022-12-18T14:25:57;1.40;99.60
39067;DHT22;24821;51.988;6.020;2022-12-18T14:28:23;1.30;99.60
39067;DHT22;24821;51.988;6.020;2022-12-18T14:30:49;1.30;99.60
39067;DHT22;24821;51.988;6.020;2022-12-18T14:33:23;1.30;99.70
39067;DHT22;24821;51.988;6.020;2022-12-18T14:36:03;1.40;99.70
39067;DHT22;24821;51.988;6.020;2022-12-18T14:38:37;1.30;99.60
39067;DHT22;24821;51.988;6.020;2022-12-18T14:43:33;1.30;99.70
39067;DHT22;24821;51.988;6.020;2022-12-18T14:45:59;1.30;99.70
39067;DHT22;24821;51.988;6.020;2022-12-18T14:48:40;1.30;99.80
39067;DHT22;24821;51.988;6.020;2022-12-18T14:51:16;1.30;99.80
39067;DHT22;24821;51.988;6.020;2022-12-18T14:53:44;1.30;99.80
39067;DHT22;24821;51.988;6.020;2022-12-18T14:56:31;1.30;99.80
39067;DHT22;24821;51.988;6.020;2022-12-18T14:59:17;1.30;99.80
39067;DHT22;24821;51.988;6.020;2022-12-18T15:01:47;1.30;99.90
39067;DHT22;24821;51.988;6.020;2022-12-18T15:04:30;1.20;99.90
39067;DHT22;24821;51.988;6.020;2022-12-18T15:07:23;1.30;99.90
39067;DHT22;24821;51.988;6.020;2022-12-18T15:12:42;1.30;99.90
39067;DHT22;24821;51.988;6.020;2022-12-18T15:18:00;1.30;99.60
39067;DHT22;24821;51.988;6.020;2022-12-18T15:20:26;1.20;99.80
39067;DHT22;24821;51.988;6.020;2022-12-18T15:22:52;1.30;99.80
39067;DHT22;24821;51.988;6.020;2022-12-18T15:25:32;1.30;99.70
39067;DHT22;24821;51.988;6.020;2022-12-18T15:27:59;1.30;99.40
39067;DHT22;24821;51.988;6.020;2022-12-18T15:30:25;1.30;99.20
39067;DHT22;24821;51.988;6.020;2022-12-18T15:32:52;1.30;99.10
39067;DHT22;24821;51.988;6.020;2022-12-18T15:35:37;1.30;99.00
39067;DHT22;24821;51.988;6.020;2022-12-18T15:38:02;1.30;98.80
39067;DHT22;24821;51.988;6.020;2022-12-18T15:40:28;1.30;98.70
39067;DHT22;24821;51.988;6.020;2022-12-18T15:42:54;1.30;98.70
39067;DHT22;24821;51.988;6.020;2022-12-18T15:45:39;1.30;98.80
39067;DHT22;24821;51.988;6.020;2022-12-18T15:48:22;1.30;98.70
39067;DHT22;24821;51.988;6.020;2022-12-18T15:50:51;1.30;98.70
39067;DHT22;24821;51.988;6.020;2022-12-18T15:53:18;1.30;98.80
39067;DHT22;24821;51.988;6.020;2022-12-18T15:55:44;1.30;98.80
39067;DHT22;24821;51.988;6.020;2022-12-18T15:58:28;1.30;98.90
39067;DHT22;24821;51.988;6.020;2022-12-18T16:00:55;1.30;99.00
39067;DHT22;24821;51.988;6.020;2022-12-18T16:03:23;1.20;98.90
39067;DHT22;24821;51.988;6.020;2022-12-18T16:05:49;1.20;98.60
39067;DHT22;24821;51.988;6.020;2022-12-18T16:08:14;1.20;98.50
39067;DHT22;24821;51.988;6.020;2022-12-18T16:10:40;1.20;98.60
39067;DHT22;24821;51.988;6.020;2022-12-18T16:13:10;1.20;98.50
39067;DHT22;24821;51.988;6.020;2022-12-18T16:15:35;1.20;98.40
39067;DHT22;24821;51.988;6.020;2022-12-18T16:18:01;1.20;98.30
39067;DHT22;24821;51.988;6.020;2022-12-18T16:20:26;1.20;98.40
39067;DHT22;24821;51.988;6.020;2022-12-18T16:22:52;1.10;98.40
39067;DHT22;24821;51.988;6.020;2022-12-18T16:25:23;1.10;98.40
39067;DHT22;24821;51.988;6.020;2022-12-18T16:27:50;1.20;98.50
39067;DHT22;24821;51.988;6.020;2022-12-18T16:30:21;1.20;98.50
39067;DHT22;24821;51.988;6.020;2022-12-18T16:32:47;1.10;98.50
39067;DHT22;24821;51.988;6.020;2022-12-18T16:35:14;1.10;98.50
39067;DHT22;24821;51.988;6.020;2022-12-18T16:37:41;1.10;98.60
39067;DHT22;24821;51.988;6.020;2022-12-18T16:40:09;1.10;98.70
39067;DHT22;24821;51.988;6.020;2022-12-18T16:42:39;1.10;98.80
39067;DHT22;24821;51.988;6.020;2022-12-18T16:45:07;1.10;98.90
39067;DHT22;24821;51.988;6.020;2022-12-18T16:47:32;1.10;99.00
39067;DHT22;24821;51.988;6.020;2022-12-18T16:49:58;1.10;99.00
39067;DHT22;24821;51.988;6.020;2022-12-18T16:52:24;1.10;99.00
39067;DHT22;24821;51.988;6.020;2022-12-18T16:54:50;1.10;99.10
39067;DHT22;24821;51.988;6.020;2022-12-18T16:57:17;1.10;99.40
39067;DHT22;24821;51.988;6.020;2022-12-18T16:59:44;1.10;99.10
39067;DHT22;24821;51.988;6.020;2022-12-18T17:02:15;1.10;99.10
39067;DHT22;24821;51.988;6.020;2022-12-18T17:04:42;1.10;99.10
39067;DHT22;24821;51.988;6.020;2022-12-18T17:07:08;1.00;99.00
39067;DHT22;24821;51.988;6.020;2022-12-18T17:09:34;1.00;99.00
39067;DHT22;24821;51.988;6.020;2022-12-18T17:12:00;1.00;99.10
39067;DHT22;24821;51.988;6.020;2022-12-18T17:14:26;1.00;99.10
39067;DHT22;24821;51.988;6.020;2022-12-18T17:16:55;1.00;99.20
39067;DHT22;24821;51.988;6.020;2022-12-18T17:19:22;1.00;99.30
39067;DHT22;24821;51.988;6.020;2022-12-18T17:21:49;1.00;99.20
39067;DHT22;24821;51.988;6.020;2022-12-18T17:24:15;1.00;99.30
39067;DHT22;24821;51.988;6.020;2022-12-18T17:26:41;1.00;99.20
39067;DHT22;24821;51.988;6.020;2022-12-18T17:29:08;1.00;99.20
39067;DHT22;24821;51.988;6.020;2022-12-18T17:31:34;1.00;99.10
39067;DHT22;24821;51.988;6.020;2022-12-18T17:34:03;1.00;99.00
39067;DHT22;24821;51.988;6.020;2022-12-18T17:36:29;1.00;99.10
39067;DHT22;24821;51.988;6.020;2022-12-18T17:38:58;1.00;99.10
39067;DHT22;24821;51.988;6.020;2022-12-18T17:41:25;1.00;99.30